createdAt,value
2023-03-17T00:12:41.891Z,1.76
2023-03-17T00:32:41.894Z,1.57
2023-03-17T00:52:41.887Z,1.39
2023-03-17T01:12:41.911Z,1.29
2023-03-17T01:32:41.927Z,1.14
2023-03-17T01:52:41.958Z,1.12
2023-03-17T02:12:41.919Z,1.03
2023-03-17T02:32:41.919Z,1.01
2023-03-17T02:52:41.923Z,0.93
2023-03-17T03:12:41.928Z,0.87
2023-03-17T03:32:41.944Z,1.04
2023-03-17T03:52:41.956Z,1.00
2023-03-17T04:12:41.925Z,1.04
2023-03-17T04:32:41.950Z,1.25
2023-03-17T04:52:41.942Z,1.27
2023-03-17T05:12:41.962Z,1.26
2023-03-17T05:32:41.944Z,1.18
2023-03-17T05:52:41.946Z,1.16
2023-03-17T06:12:42.065Z,1.43
2023-03-17T06:32:42.108Z,1.75
2023-03-17T06:52:42.107Z,2.00
2023-03-17T07:12:42.012Z,2.30
2023-03-17T07:32:42.003Z,3.06
2023-03-17T07:52:42.024Z,3.76
2023-03-17T08:12:41.998Z,4.36
2023-03-17T08:32:42.031Z,4.72
2023-03-17T08:52:42.059Z,5.48
2023-03-17T09:12:42.044Z,6.38
2023-03-17T09:32:42.125Z,8.10
2023-03-17T09:52:41.938Z,9.66
2023-03-17T10:12:41.960Z,10.79
2023-03-17T10:32:41.990Z,11.50
2023-03-17T10:52:42.129Z,11.58
2023-03-17T11:12:42.096Z,11.71
2023-03-17T11:32:42.018Z,11.80
2023-03-17T11:52:42.097Z,12.17
2023-03-17T12:12:41.885Z,12.55
2023-03-17T12:32:42.009Z,12.88
2023-03-17T12:52:41.862Z,13.56
2023-03-17T13:12:41.773Z,14.10
2023-03-17T13:32:41.832Z,14.15
2023-03-17T13:52:41.820Z,13.97
2023-03-17T14:12:41.804Z,14.06
2023-03-17T14:32:41.710Z,13.85
2023-03-17T14:52:41.815Z,13.66
2023-03-17T15:12:41.849Z,13.54
2023-03-17T15:32:41.740Z,13.39
2023-03-17T15:52:41.677Z,13.66
2023-03-17T16:12:41.682Z,13.62
2023-03-17T16:32:41.659Z,12.82
2023-03-17T16:52:41.567Z,11.71
2023-03-17T17:12:41.566Z,10.42
2023-03-17T17:32:41.576Z,9.18
2023-03-17T17:52:41.598Z,8.20
2023-03-17T18:12:41.612Z,7.65
2023-03-17T18:32:41.503Z,7.08
2023-03-17T18:52:41.536Z,6.65
2023-03-17T19:12:41.526Z,6.27
2023-03-17T19:32:41.540Z,5.79
2023-03-17T19:52:41.541Z,5.54
2023-03-17T20:12:41.553Z,5.27
2023-03-17T20:32:41.632Z,5.19
2023-03-17T20:52:41.555Z,5.02
2023-03-17T21:12:41.575Z,4.75
2023-03-17T21:32:41.468Z,4.54
2023-03-17T21:52:41.586Z,4.38
2023-03-17T22:12:41.508Z,4.35
2023-03-17T22:32:41.561Z,4.38
2023-03-17T22:52:41.481Z,4.20
2023-03-17T23:12:41.487Z,3.97
2023-03-17T23:32:41.491Z,3.77
2023-03-17T23:52:41.514Z,3.72
